Taft, Ohio
Current Conditions -  °F | °C
As of 3:53 PM on Friday 28 Nov 2014 (Local Time) from KLUK Reporting Station
Clear Clear  
Wind Chill: -2°   Ceiling: Unl
Heat Index:   Visibility: 10mi
Dew Point: -9°   Wind: 9mph
Humidity: 46%   Direction: 200°SSW
Pressure: 30.25"   Gusts: NA
Location:  39.2094°N, 84.3952°W
Report Text: KLUK 282053Z 20008KT 10SM CLR 02/M09 A3025 RMK AO2 SLP248 T00171089 56025
Loading
Personal Weather Stations






























Interactive Weather Map New forecast layout! Learn more

10-Day Weather Forecast

Advertisements
Track Severe Weather on mobile